Time;durP1;ratioP1;P1;durP2;ratioP2;P2;SDS_P1;SDS_P2;PMS_P1;PMS_P2;Temp;Humidity;BMP_temperature;BMP_pressure;BME280_temperature;BME280_humidity;BME280_pressure;Samples;Min_cycle;Max_cycle;Signal;HPM_P1;HPM_P2
2023/05/24 00:00:42;;;;;;;14.75;8.02;;;;;;;22.13;57.27;100439.84;5036810;28;20037;-80
2023/05/24 00:03:34;;;;;;;16.48;7.25;;;;;;;22.06;57.30;100429.56;5034558;28;20045;-80
2023/05/24 00:06:26;;;;;;;12.32;7.07;;;;;;;22.19;57.03;100432.72;5038388;28;20057;-81
2023/05/24 00:09:21;;;;;;;11.15;7.18;;;;;;;22.44;56.29;100438.94;5035846;28;20504;-80
2023/05/24 00:12:15;;;;;;;6.57;5.38;;;;;;;22.44;55.69;100438.94;5033953;28;20052;-80
2023/05/24 00:15:11;;;;;;;12.73;7.40;;;;;;;22.45;55.99;100434.97;5037231;28;20044;-79
2023/05/24 00:18:06;;;;;;;11.32;7.28;;;;;;;22.34;56.23;100437.00;5035218;28;20399;-80
2023/05/24 00:21:00;;;;;;;10.27;7.45;;;;;;;21.95;57.25;100444.63;5038292;28;20041;-80
2023/05/24 00:23:55;;;;;;;14.20;7.55;;;;;;;22.07;56.66;100444.19;5035874;28;20045;-80
2023/05/24 00:26:49;;;;;;;11.20;8.45;;;;;;;22.10;56.52;100437.84;5039098;28;20045;-79
2023/05/24 00:29:44;;;;;;;14.13;8.52;;;;;;;22.01;57.25;100435.50;5036622;28;20046;-80
2023/05/24 00:32:38;;;;;;;11.55;7.43;;;;;;;21.90;56.83;100431.94;5033788;28;20044;-79
2023/05/24 00:35:31;;;;;;;20.30;7.40;;;;;;;21.97;56.80;100434.75;5038595;28;20041;-78
2023/05/24 00:38:22;;;;;;;12.32;8.40;;;;;;;21.93;56.57;100439.47;5033742;28;20423;-79
2023/05/24 00:41:15;;;;;;;13.75;8.40;;;;;;;21.85;56.84;100439.84;5033295;28;20044;-80
2023/05/24 00:44:09;;;;;;;11.15;7.55;;;;;;;21.83;57.04;100431.97;5022307;28;20037;-79
2023/05/24 00:47:04;;;;;;;12.68;7.63;;;;;;;21.93;57.13;100433.94;5020267;28;20048;-79
2023/05/24 00:49:59;;;;;;;14.88;8.88;;;;;;;21.94;56.84;100432.75;5022538;28;20041;-79
2023/05/24 00:52:53;;;;;;;16.50;9.27;;;;;;;22.09;56.29;100442.63;5034894;28;20056;-79
2023/05/24 00:55:45;;;;;;;11.20;8.25;;;;;;;21.82;57.89;100432.38;5018891;28;20128;-79
2023/05/24 00:58:35;;;;;;;13.13;9.50;;;;;;;21.29;59.12;100428.44;5037540;28;20052;-79
2023/05/24 01:01:29;;;;;;;14.18;8.30;;;;;;;21.38;59.71;100427.25;5019590;28;20068;-79
2023/05/24 01:04:21;;;;;;;13.27;9.13;;;;;;;21.08;61.03;100425.63;5032668;28;20068;-79
2023/05/24 01:07:22;;;;;;;12.50;8.23;;;;;;;21.17;60.91;100425.28;5021068;28;20040;-79
2023/05/24 01:10:23;;;;;;;18.92;9.40;;;;;;;21.43;60.59;100427.66;5017813;28;20037;-79
2023/05/24 01:13:49;;;;;;;12.43;8.85;;;;;;;20.83;60.96;100424.78;5032877;28;20405;-79
2023/05/24 01:17:20;;;;;;;11.68;9.38;;;;;;;20.53;61.53;100416.00;5032198;28;20037;-80
2023/05/24 01:20:16;;;;;;;14.32;8.40;;;;;;;20.79;61.65;100415.69;5034069;28;20060;-78
2023/05/24 01:23:21;;;;;;;11.52;8.27;;;;;;;21.24;60.27;100411.44;5018056;28;20045;-78
2023/05/24 01:26:39;;;;;;;13.63;8.70;;;;;;;21.22;59.70;100414.63;5035184;28;20041;-78
2023/05/24 01:29:31;;;;;;;11.25;7.63;;;;;;;21.25;60.50;100413.81;5022364;28;20049;-78
2023/05/24 01:32:25;;;;;;;11.35;8.63;;;;;;;21.33;60.20;100409.09;5020056;28;20045;-78
2023/05/24 01:35:20;;;;;;;24.40;9.88;;;;;;;21.42;59.60;100412.25;5017980;28;20052;-78
2023/05/24 01:38:15;;;;;;;11.52;8.77;;;;;;;21.49;59.21;100406.69;5036091;28;20048;-79
2023/05/24 01:41:28;;;;;;;16.02;8.88;;;;;;;21.64;58.20;100408.25;5032433;28;20037;-78
2023/05/24 01:44:49;;;;;;;10.52;8.07;;;;;;;21.54;57.71;100408.25;5031975;28;20632;-79
2023/05/24 01:47:57;;;;;;;12.82;8.95;;;;;;;21.43;58.61;100407.50;5031945;28;20048;-78
2023/05/24 01:50:54;;;;;;;16.35;10.23;;;;;;;21.56;58.59;100414.19;5035519;28;20044;-79
2023/05/24 01:53:50;;;;;;;12.88;8.07;;;;;;;21.58;57.76;100411.84;5033430;28;20037;-79
2023/05/24 01:56:43;;;;;;;14.57;8.77;;;;;;;21.73;58.19;100416.16;5031916;28;20437;-78
2023/05/24 01:59:40;;;;;;;12.27;8.52;;;;;;;21.48;57.56;100401.56;5033889;28;20033;-79
2023/05/24 02:02:35;;;;;;;12.15;8.40;;;;;;;21.48;58.19;100399.59;5034765;28;20041;-78
2023/05/24 02:05:27;;;;;;;12.93;9.48;;;;;;;20.95;59.76;100405.06;5038627;28;20041;-78
2023/05/24 02:08:21;;;;;;;15.38;9.68;;;;;;;20.52;61.78;100403.41;5036276;28;20041;-78
2023/05/24 02:11:17;;;;;;;13.77;8.38;;;;;;;21.06;59.97;100411.41;5040588;28;20065;-78
2023/05/24 02:14:07;;;;;;;;;;;;;;;21.06;60.63;100407.84;5081718;22;20052;-75
2023/05/24 02:17:02;;;;;;;13.10;9.13;;;;;;;20.81;61.65;100413.34;5018713;28;20318;-75
2023/05/24 02:19:57;;;;;;;12.35;8.20;;;;;;;20.94;61.79;100414.53;5016196;28;20489;-75
2023/05/24 02:22:51;;;;;;;13.35;8.30;;;;;;;20.97;61.59;100412.97;5019596;28;20045;-75
2023/05/24 02:25:45;;;;;;;15.73;10.27;;;;;;;20.20;64.77;100414.28;5015486;28;20045;-75
2023/05/24 02:28:40;;;;;;;12.98;9.70;;;;;;;20.31;63.67;100415.94;5016106;28;20038;-75
2023/05/24 02:31:34;;;;;;;28.30;7.70;;;;;;;20.66;64.09;100415.28;5004051;28;20425;-76
2023/05/24 02:34:29;;;;;;;11.30;8.93;;;;;;;20.83;62.48;100414.53;5002358;28;20048;-75
2023/05/24 02:37:21;;;;;;;10.93;7.80;;;;;;;20.79;62.29;100418.47;5020578;28;20042;-76
2023/05/24 02:40:16;;;;;;;17.70;10.40;;;;;;;20.35;63.73;100411.22;5018114;28;20042;-75
2023/05/24 02:43:08;;;;;;;15.60;8.93;;;;;;;20.75;62.69;100414.91;5015142;28;20038;-76
2023/05/24 02:46:02;;;;;;;15.32;9.98;;;;;;;20.42;63.06;100424.25;5015756;28;20049;-75
2023/05/24 02:48:57;;;;;;;8.80;6.25;;;;;;;20.80;63.19;100422.81;5017249;28;20083;-75
2023/05/24 02:51:51;;;;;;;12.93;9.80;;;;;;;20.39;63.86;100420.31;5005637;28;20049;-75
2023/05/24 02:54:46;;;;;;;57.80;16.52;;;;;;;19.43;66.23;100421.66;5003894;28;20048;-76
2023/05/24 02:57:42;;;;;;;26.88;13.65;;;;;;;19.07;67.99;100419.75;5002706;28;20045;-77
2023/05/24 03:00:34;;;;;;;208.07;40.75;;;;;;;19.51;68.04;100419.75;5004128;28;20041;-75
2023/05/24 03:03:29;;;;;;;106.63;26.65;;;;;;;20.27;65.73;100414.28;5002230;28;20049;-75
2023/05/24 03:06:23;;;;;;;61.80;18.83;;;;;;;20.26;64.71;100416.28;4999960;28;20046;-74
2023/05/24 03:09:18;;;;;;;17.27;9.75;;;;;;;20.04;63.72;100414.59;5003217;28;20409;-74
2023/05/24 03:12:12;;;;;;;17.33;10.52;;;;;;;19.92;64.38;100409.38;5000172;28;20065;-75
2023/05/24 03:15:07;;;;;;;29.67;12.57;;;;;;;20.08;64.19;100409.88;5002916;28;20042;-75
2023/05/24 03:18:01;;;;;;;17.27;10.60;;;;;;;20.14;64.29;100413.88;5001813;28;20041;-75
2023/05/24 03:20:54;;;;;;;20.05;10.20;;;;;;;20.39;63.00;100419.53;4999525;28;20064;-75
2023/05/24 03:23:49;;;;;;;19.45;9.43;;;;;;;20.40;64.70;100416.38;5014509;28;20034;-75
2023/05/24 03:26:43;;;;;;;17.58;8.55;;;;;;;20.17;64.43;100410.31;5000710;28;20408;-75
2023/05/24 03:29:36;;;;;;;;;;;;;;;19.70;65.04;100411.25;5004416;28;20046;-75
2023/05/24 03:32:30;;;;;;;16.50;10.60;;;;;;;19.71;65.26;100417.56;5002142;28;19933;-75
2023/05/24 03:35:25;;;;;;;16.83;10.40;;;;;;;19.88;64.45;100427.91;5014735;28;20042;-75
2023/05/24 03:38:21;;;;;;;15.50;10.45;;;;;;;20.08;63.23;100424.47;4998110;28;20049;-75
2023/05/24 03:41:13;;;;;;;;;;;;;;;20.13;65.46;100434.34;5004183;28;20030;-75
2023/05/24 03:44:08;;;;;;;10.40;7.63;;;;;;;20.51;63.54;100438.53;5019753;28;19913;-75
2023/05/24 03:47:03;;;;;;;8.88;7.45;;;;;;;21.05;61.94;100442.22;5010163;28;20053;-75
2023/05/24 03:49:58;;;;;;;7.85;6.57;;;;;;;21.06;61.73;100444.59;4999344;28;20045;-75
2023/05/24 03:52:52;;;;;;;12.90;8.80;;;;;;;20.88;59.81;100454.81;5003282;28;20421;-75
2023/05/24 03:55:45;;;;;;;11.30;7.65;;;;;;;20.12;64.29;100451.31;4999920;28;20403;-75
2023/05/24 03:58:38;;;;;;;13.20;9.02;;;;;;;19.91;63.83;100457.50;4998050;28;20037;-75
2023/05/24 04:01:35;;;;;;;17.48;10.45;;;;;;;19.59;64.60;100458.06;4993190;28;20031;-75
2023/05/24 04:04:30;;;;;;;17.85;10.07;;;;;;;19.94;63.16;100448.44;5000251;28;20033;-75
2023/05/24 04:07:23;;;;;;;12.18;8.27;;;;;;;20.29;62.87;100458.91;5009599;28;20037;-75
2023/05/24 04:10:13;;;;;;;13.65;9.18;;;;;;;20.08;62.17;100452.09;5011914;28;20489;-75
2023/05/24 04:13:08;;;;;;;16.08;10.45;;;;;;;20.20;62.21;100453.75;4997696;28;20046;-75
2023/05/24 04:16:03;;;;;;;13.02;8.35;;;;;;;20.12;62.30;100452.09;5016757;28;20037;-75
2023/05/24 04:18:59;;;;;;;13.10;8.90;;;;;;;20.05;62.97;100458.38;5020677;28;20420;-76
2023/05/24 04:21:54;;;;;;;11.23;8.43;;;;;;;20.04;62.99;100453.25;5003909;28;20404;-75
2023/05/24 04:24:48;;;;;;;11.88;8.18;;;;;;;20.19;62.48;100463.19;5011135;28;20420;-76
2023/05/24 04:27:40;;;;;;;15.82;7.85;;;;;;;20.38;62.25;100454.63;5002237;28;20033;-75
2023/05/24 04:30:35;;;;;;;17.52;8.82;;;;;;;20.37;62.27;100458.56;5010517;28;20061;-75
2023/05/24 04:33:30;;;;;;;16.02;8.57;;;;;;;20.41;62.14;100464.13;5011875;28;20523;-75
2023/05/24 04:36:22;;;;;;;;;;;;;;;20.47;62.60;100473.59;5015159;28;20045;-75
2023/05/24 04:39:17;;;;;;;14.85;9.25;;;;;;;20.43;63.06;100467.28;5035090;28;19913;-75
2023/05/24 04:42:11;;;;;;;19.50;8.98;;;;;;;20.42;61.97;100472.00;5014018;28;20417;-76
2023/05/24 04:45:05;;;;;;;11.00;8.27;;;;;;;20.32;62.97;100475.50;5019270;28;20401;-75
2023/05/24 04:48:00;;;;;;;17.77;8.60;;;;;;;20.47;62.99;100471.63;5013933;28;20489;-75
2023/05/24 04:50:55;;;;;;;17.27;8.57;;;;;;;20.42;62.92;100466.47;5011835;28;20053;-74
2023/05/24 04:53:50;;;;;;;15.75;8.30;;;;;;;20.50;62.72;100475.59;5022267;28;20052;-75
2023/05/24 04:56:44;;;;;;;20.90;8.15;;;;;;;20.54;62.60;100476.41;5004801;28;20038;-75
2023/05/24 04:59:39;;;;;;;15.02;8.00;;;;;;;20.60;62.93;100485.91;5016215;28;20037;-75
2023/05/24 05:02:33;;;;;;;12.43;7.30;;;;;;;20.77;62.83;100484.41;5013882;28;20049;-75
2023/05/24 05:05:28;;;;;;;12.88;7.72;;;;;;;20.77;63.67;100495.47;5014847;28;20053;-81
2023/05/24 05:08:22;;;;;;;12.60;7.70;;;;;;;20.71;64.74;100497.81;5014975;28;20502;-75
2023/05/24 05:11:17;;;;;;;19.00;7.30;;;;;;;20.74;64.98;100490.69;5012428;28;20665;-76
2023/05/24 05:14:11;;;;;;;15.38;7.63;;;;;;;20.96;63.25;100491.56;5022057;28;20044;-76
2023/05/24 05:17:06;;;;;;;16.50;8.65;;;;;;;21.03;64.11;100497.13;5023509;28;20048;-75
2023/05/24 05:20:00;;;;;;;13.48;8.00;;;;;;;21.02;64.71;100493.56;5036851;28;20034;-75
2023/05/24 05:22:55;;;;;;;16.75;8.05;;;;;;;21.05;64.63;100494.75;5034626;28;20602;-75
2023/05/24 05:25:50;;;;;;;13.30;7.80;;;;;;;21.17;64.12;100486.91;5032470;28;20041;-76
2023/05/24 05:28:44;;;;;;;22.20;9.05;;;;;;;21.31;63.08;100495.22;5035592;28;20046;-75
2023/05/24 05:31:39;;;;;;;10.07;7.43;;;;;;;21.43;62.93;100496.03;5033137;28;20041;-75
2023/05/24 05:34:33;;;;;;;19.33;8.48;;;;;;;21.43;62.14;100502.38;5036287;28;20045;-75
2023/05/24 05:37:28;;;;;;;25.55;8.90;;;;;;;21.44;60.88;100498.38;5034972;28;20045;-75
2023/05/24 05:40:22;;;;;;;14.65;9.50;;;;;;;21.08;60.08;100491.97;5032365;28;20037;-75
2023/05/24 05:43:17;;;;;;;18.70;9.02;;;;;;;21.19;60.62;100503.88;5035828;28;20052;-76
2023/05/24 05:46:12;;;;;;;15.75;9.88;;;;;;;21.33;60.13;100503.16;5032389;28;20408;-75
2023/05/24 05:49:06;;;;;;;9.13;7.35;;;;;;;21.34;60.26;100502.72;5036888;28;20534;-76
2023/05/24 05:51:58;;;;;;;17.10;9.90;;;;;;;21.16;59.60;100501.91;5034868;28;20507;-75
2023/05/24 05:54:53;;;;;;;16.13;9.63;;;;;;;21.50;59.26;100505.13;5032750;28;20045;-75
2023/05/24 05:57:47;;;;;;;15.60;9.52;;;;;;;21.78;58.39;100504.34;5035729;28;20558;-76
2023/05/24 06:00:42;;;;;;;13.77;9.98;;;;;;;21.66;58.54;100505.53;5033684;28;20041;-75
2023/05/24 06:03:37;;;;;;;11.77;8.35;;;;;;;21.68;58.13;100513.44;5037417;28;20405;-75
2023/05/24 06:06:31;;;;;;;15.07;10.35;;;;;;;21.66;58.36;100510.28;5034902;28;20041;-76
2023/05/24 06:09:26;;;;;;;13.50;9.38;;;;;;;21.61;58.02;100524.50;5028131;28;20042;-75
2023/05/24 06:12:20;;;;;;;16.55;7.68;;;;;;;21.71;57.67;100518.19;5013288;28;20036;-75
2023/05/24 06:15:12;;;;;;;22.70;8.85;;;;;;;21.82;58.53;100515.41;5028674;28;20041;-76
2023/05/24 06:18:07;;;;;;;17.15;8.48;;;;;;;21.81;57.85;100514.63;5036446;28;20041;-76
2023/05/24 06:21:02;;;;;;;10.75;8.68;;;;;;;21.93;57.87;100518.97;5034711;28;20048;-76
2023/05/24 06:23:56;;;;;;;12.32;9.45;;;;;;;22.04;57.03;100519.78;5032289;28;20504;-76
2023/05/24 06:26:50;;;;;;;13.38;9.90;;;;;;;22.03;57.12;100515.44;5036251;28;20408;-76
2023/05/24 06:29:45;;;;;;;15.23;9.63;;;;;;;21.89;57.08;100520.97;5033436;28;20048;-75
2023/05/24 06:32:39;;;;;;;21.17;10.60;;;;;;;21.91;57.27;100519.34;5018922;28;20556;-75
2023/05/24 06:35:34;;;;;;;20.90;10.70;;;;;;;22.02;56.87;100516.63;5003411;28;20042;-75
2023/05/24 06:38:26;;;;;;;18.92;11.70;;;;;;;22.18;56.83;100512.25;5004120;28;20038;-75
2023/05/24 06:41:21;;;;;;;18.20;10.85;;;;;;;22.12;56.96;100519.38;5008360;28;20030;-77
2023/05/24 06:44:15;;;;;;;16.42;9.30;;;;;;;22.39;56.87;100518.94;5016961;28;20037;-76
2023/05/24 06:47:08;;;;;;;20.83;11.10;;;;;;;22.61;56.07;100512.09;4989560;28;20034;-75
2023/05/24 06:50:02;;;;;;;21.48;11.07;;;;;;;22.42;55.47;100523.66;5031889;28;20485;-76
2023/05/24 06:52:54;;;;;;;;;;;;;;;22.38;56.13;100525.66;5012483;28;20038;-75
2023/05/24 06:55:49;;;;;;;15.45;8.07;;;;;;;22.52;56.01;100520.84;5016330;28;19913;-76
2023/05/24 06:58:43;;;;;;;16.00;11.55;;;;;;;22.66;55.07;100522.00;5017478;28;20038;-76
2023/05/24 07:01:41;;;;;;;22.73;10.10;;;;;;;22.61;54.64;100521.22;5014581;28;20041;-76
2023/05/24 07:04:35;;;;;;;23.08;11.00;;;;;;;22.56;55.61;100523.59;5022349;28;20038;-75
2023/05/24 07:07:30;;;;;;;18.55;9.60;;;;;;;22.57;55.46;100523.22;5010584;28;20042;-76
2023/05/24 07:10:24;;;;;;;15.05;9.75;;;;;;;22.61;55.40;100517.66;5018365;28;20425;-76
2023/05/24 07:13:19;;;;;;;26.35;11.68;;;;;;;22.81;55.10;100523.53;5011684;28;20061;-75
2023/05/24 07:16:11;;;;;;;11.80;8.32;;;;;;;22.91;54.79;100523.50;5019952;28;20038;-76
2023/05/24 07:19:06;;;;;;;17.30;10.65;;;;;;;22.84;55.08;100529.09;5025963;28;20044;-76
2023/05/24 07:22:03;;;;;;;21.48;12.30;;;;;;;22.85;54.75;100525.13;5015830;28;20611;-75
2023/05/24 07:24:58;;;;;;;40.20;12.05;;;;;;;22.90;54.99;100530.25;5020045;28;20405;-77
2023/05/24 07:27:52;;;;;;;19.27;12.48;;;;;;;22.91;53.85;100529.03;5017223;28;20046;-76
2023/05/24 07:30:47;;;;;;;28.70;13.38;;;;;;;22.92;53.66;100525.06;5013815;28;20620;-76
2023/05/24 07:33:39;;;;;;;;;;;;;;;22.92;53.99;100522.31;5027261;28;20033;-76
2023/05/24 07:36:31;;;;;;;15.38;11.77;;;;;;;23.10;53.48;100522.22;5027322;28;19932;-76
2023/05/24 07:39:26;;;;;;;23.35;12.90;;;;;;;23.26;52.49;100518.97;5021946;28;20034;-76
2023/05/24 07:42:21;;;;;;;21.13;9.27;;;;;;;23.29;52.84;100521.72;5013359;28;20034;-76
2023/05/24 07:45:11;;;;;;;18.23;12.52;;;;;;;23.32;52.35;100533.97;5015302;28;20029;-76
2023/05/24 07:48:06;;;;;;;18.85;10.80;;;;;;;23.35;52.34;100528.41;4999283;28;20489;-76
2023/05/24 07:51:00;;;;;;;20.05;10.02;;;;;;;23.37;52.11;100522.44;4996214;28;20068;-77
2023/05/24 07:53:52;;;;;;;21.88;11.18;;;;;;;23.46;51.69;100525.59;5016440;28;20038;-76
2023/05/24 07:56:47;;;;;;;24.38;12.02;;;;;;;23.52;51.26;100535.06;5007213;28;20037;-76
2023/05/24 07:59:41;;;;;;;22.60;10.98;;;;;;;23.50;51.55;100526.38;5014943;28;20041;-76
2023/05/24 08:02:36;;;;;;;18.50;12.60;;;;;;;23.67;51.36;100530.97;5021971;28;20034;-77
2023/05/24 08:05:31;;;;;;;16.83;10.60;;;;;;;23.88;51.81;100533.59;5007086;28;20509;-76
2023/05/24 08:08:25;;;;;;;22.73;11.75;;;;;;;24.25;50.67;100523.75;5005721;28;20034;-76
2023/05/24 08:11:20;;;;;;;24.63;13.38;;;;;;;24.22;50.45;100527.38;5010419;28;20042;-77
2023/05/24 08:14:14;;;;;;;25.77;12.48;;;;;;;24.26;50.59;100525.31;5005728;28;21436;-76
2023/05/24 08:17:09;;;;;;;20.40;12.20;;;;;;;24.21;50.52;100523.00;5013341;28;20042;-76
2023/05/24 08:20:04;;;;;;;21.05;10.82;;;;;;;24.42;49.59;100525.56;5015718;28;20038;-75
2023/05/24 08:22:59;;;;;;;16.33;10.75;;;;;;;24.22;50.41;100528.16;5014172;28;20049;-75
2023/05/24 08:25:51;;;;;;;21.17;11.10;;;;;;;24.39;49.59;100526.38;5007604;28;20030;-75
2023/05/24 08:28:45;;;;;;;12.93;8.65;;;;;;;24.81;49.00;100519.53;5014707;28;20046;-76
2023/05/24 08:31:40;;;;;;;17.02;9.88;;;;;;;24.89;48.40;100534.19;5018038;28;20393;-76
2023/05/24 08:34:35;;;;;;;16.67;8.80;;;;;;;24.61;48.63;100535.28;5018800;28;20045;-75
2023/05/24 08:37:29;;;;;;;17.73;9.50;;;;;;;24.68;48.30;100529.63;5013476;28;20052;-75
2023/05/24 08:40:24;;;;;;;16.45;8.45;;;;;;;25.07;47.72;100534.72;5016749;28;20042;-76
2023/05/24 08:43:19;;;;;;;16.58;9.48;;;;;;;25.01;47.91;100531.59;5014541;28;20038;-76
2023/05/24 08:46:15;;;;;;;20.23;8.73;;;;;;;25.28;49.55;100544.78;5013196;28;20060;-76
2023/05/24 08:49:11;;;;;;;15.55;7.65;;;;;;;25.21;47.82;100540.09;5015793;28;20506;-75
2023/05/24 08:52:06;;;;;;;9.75;6.40;;;;;;;25.37;48.25;100548.59;5011427;28;20563;-75
2023/05/24 08:54:59;;;;;;;;;;;;;;;25.42;47.49;100542.56;5026161;28;20040;-76
2023/05/24 08:57:54;;;;;;;13.77;5.97;;;;;;;25.51;46.48;100545.59;5018648;28;19912;-75
2023/05/24 09:00:48;;;;;;;23.60;5.75;;;;;;;25.36;46.34;100535.09;5021814;28;20064;-76
2023/05/24 09:03:44;;;;;;;16.58;5.55;;;;;;;25.42;45.51;100533.41;5035335;28;20099;-76
2023/05/24 09:06:39;;;;;;;9.27;4.45;;;;;;;25.54;45.89;100528.06;5032861;28;20045;-77
2023/05/24 09:09:35;;;;;;;11.32;4.55;;;;;;;25.79;45.90;100536.06;5035954;28;20072;-76
2023/05/24 09:12:30;;;;;;;12.15;4.68;;;;;;;25.55;46.04;100524.09;5028621;28;20037;-76
2023/05/24 09:15:24;;;;;;;37.60;5.90;;;;;;;25.36;45.68;100535.09;5014614;28;20048;-76
2023/05/24 09:18:18;;;;;;;25.27;5.45;;;;;;;25.64;45.00;100529.13;5015302;28;20501;-76
2023/05/24 09:21:13;;;;;;;608.55;40.28;;;;;;;25.39;45.96;100532.28;5012689;28;20520;-76
2023/05/24 09:24:08;;;;;;;15.85;4.97;;;;;;;25.62;44.27;100534.34;5022516;28;20037;-76
2023/05/24 09:27:08;;;;;;;12.48;4.70;;;;;;;25.54;44.73;100539.22;5008467;28;20042;-76
2023/05/24 09:30:00;;;;;;;12.13;5.43;;;;;;;25.53;45.30;100531.28;5016898;28;20412;-76
2023/05/24 09:33:02;;;;;;;18.90;5.25;;;;;;;25.35;45.42;100525.94;5014740;28;20540;-76
2023/05/24 09:35:59;;;;;;;15.27;5.00;;;;;;;25.22;45.35;100526.97;5012336;28;20033;-76
2023/05/24 09:39:22;;;;;;;13.32;6.55;;;;;;;25.27;45.65;100524.50;5015646;28;20045;-76
2023/05/24 09:42:27;;;;;;;8.45;6.00;;;;;;;25.59;44.68;100524.03;5012305;28;20048;-76
2023/05/24 09:45:19;;;;;;;13.77;5.57;;;;;;;25.42;45.02;100519.50;5015078;28;20497;-76
2023/05/24 09:48:14;;;;;;;12.30;4.05;;;;;;;25.10;46.38;100525.53;5012599;28;20046;-76
2023/05/24 09:51:11;;;;;;;9.05;6.57;;;;;;;25.53;46.08;100525.69;5015986;28;20492;-76
2023/05/24 09:54:09;;;;;;;17.02;5.30;;;;;;;25.20;46.80;100518.22;5016724;28;20045;-76
2023/05/24 09:57:04;;;;;;;18.48;5.75;;;;;;;25.03;46.49;100523.66;5011804;28;20042;-76
2023/05/24 09:59:58;;;;;;;15.88;5.75;;;;;;;25.19;46.97;100533.38;5014401;28;20050;-76
2023/05/24 10:03:05;;;;;;;10.50;5.65;;;;;;;25.73;45.32;100534.16;5012306;28;20516;-76
2023/05/24 10:06:00;;;;;;;12.13;5.78;;;;;;;25.83;44.96;100527.63;5012797;28;20044;-77
2023/05/24 10:08:55;;;;;;;10.43;5.65;;;;;;;25.66;45.13;100518.34;5013250;28;20053;-76
2023/05/24 10:11:49;;;;;;;33.78;7.20;;;;;;;25.72;45.50;100516.66;5016325;28;20038;-76
2023/05/24 10:14:42;;;;;;;21.38;5.10;;;;;;;25.70;45.51;100512.72;5021040;28;20049;-76
2023/05/24 10:17:34;;;;;;;9.40;5.53;;;;;;;25.71;45.42;100515.06;5011896;28;20049;-76
2023/05/24 10:20:29;;;;;;;8.77;5.32;;;;;;;25.87;45.37;100517.19;5015657;28;20524;-77
2023/05/24 10:23:25;;;;;;;12.82;5.07;;;;;;;25.79;44.94;100510.19;5016076;28;20121;-76
2023/05/24 10:26:22;;;;;;;14.65;5.88;;;;;;;26.15;45.64;100513.13;5023030;28;20041;-76
2023/05/24 10:29:27;;;;;;;11.93;5.55;;;;;;;26.12;44.37;100511.19;5034356;28;20041;-76
2023/05/24 10:32:23;;;;;;;10.35;5.50;;;;;;;25.79;45.31;100512.97;5023112;28;20037;-76
2023/05/24 10:35:18;;;;;;;11.68;4.68;;;;;;;25.97;44.54;100507.88;5007834;28;20049;-76
2023/05/24 10:38:13;;;;;;;35.30;6.68;;;;;;;26.14;43.18;100503.97;5012519;28;20045;-76
2023/05/24 10:41:05;;;;;;;9.32;5.55;;;;;;;26.13;43.49;100502.41;5013962;28;20030;-76
2023/05/24 10:44:01;;;;;;;10.00;5.05;;;;;;;26.12;43.31;100500.81;4998432;28;20313;-76
2023/05/24 10:47:17;;;;;;;12.90;5.40;;;;;;;26.13;43.22;100505.19;5019187;28;20527;-77
2023/05/24 10:50:18;;;;;;;;;;;;;;;26.07;44.17;100509.69;5004736;28;20046;-76
2023/05/24 10:53:23;;;;;;;13.30;5.20;;;;;;;26.21;42.60;100503.06;5007725;28;19917;-77
2023/05/24 10:56:13;;;;;;;12.30;4.00;;;;;;;26.19;41.59;100499.91;5003554;28;20044;-76
2023/05/24 10:59:08;;;;;;;11.88;4.82;;;;;;;26.35;42.53;100498.03;5004220;28;20049;-77
2023/05/24 11:02:02;;;;;;;13.57;4.60;;;;;;;26.83;41.11;100494.66;5011591;28;20034;-77
2023/05/24 11:04:55;;;;;;;6.60;4.25;;;;;;;26.69;40.26;100500.53;5016582;28;20033;-76
2023/05/24 11:07:49;;;;;;;18.40;4.85;;;;;;;26.66;40.83;100492.25;5000234;28;20524;-76
2023/05/24 11:10:44;;;;;;;22.50;5.63;;;;;;;26.65;39.79;100493.47;5010511;28;20029;-76
2023/05/24 11:13:38;;;;;;;9.65;4.53;;;;;;;26.58;40.42;100493.59;5018095;28;20046;-76
2023/05/24 11:16:49;;;;;;;11.30;5.07;;;;;;;26.69;40.45;100494.16;5014427;28;20045;-76
2023/05/24 11:19:46;;;;;;;12.63;5.47;;;;;;;26.55;40.46;100488.88;5010695;28;20038;-76
2023/05/24 11:22:41;;;;;;;9.88;4.20;;;;;;;26.02;43.21;100479.50;5013210;28;20030;-76
2023/05/24 11:25:36;;;;;;;12.80;5.53;;;;;;;26.49;41.71;100474.66;5011444;28;20516;-76
2023/05/24 11:28:30;;;;;;;14.73;5.63;;;;;;;26.57;41.93;100480.84;5011745;28;20502;-76
2023/05/24 11:31:30;;;;;;;6.90;5.45;;;;;;;27.02;42.24;100472.75;5009048;28;20433;-76
2023/05/24 11:34:25;;;;;;;13.13;5.22;;;;;;;26.73;41.35;100472.56;5009521;28;20041;-76
2023/05/24 11:37:20;;;;;;;12.55;4.15;;;;;;;26.71;42.49;100463.84;5015091;28;20042;-76
2023/05/24 11:40:15;;;;;;;14.57;5.85;;;;;;;26.85;42.48;100463.53;5015431;28;20049;-75
2023/05/24 11:43:09;;;;;;;12.05;5.80;;;;;;;26.99;42.34;100462.44;5012384;28;20056;-76
2023/05/24 11:46:01;;;;;;;;;;;;;;;27.00;41.91;100458.44;5001369;28;20034;-76
2023/05/24 11:49:03;;;;;;;10.00;5.25;;;;;;;26.86;42.37;100448.34;5014333;28;19917;-76
2023/05/24 11:51:58;;;;;;;18.10;6.32;;;;;;;26.69;41.93;100444.72;5022168;28;20053;-76
2023/05/24 11:54:50;;;;;;;13.43;5.97;;;;;;;26.54;42.51;100431.53;5021166;28;20421;-76
2023/05/24 11:57:49;;;;;;;12.35;6.35;;;;;;;26.38;42.60;100440.59;5011125;28;20057;-76
2023/05/24 12:00:45;;;;;;;8.52;5.50;;;;;;;26.61;42.26;100436.97;5016661;28;20052;-76
2023/05/24 12:03:37;;;;;;;18.67;5.47;;;;;;;26.44;43.91;100433.31;5017374;28;20409;-75
2023/05/24 12:06:37;;;;;;;16.15;6.55;;;;;;;26.58;42.63;100423.84;5014283;28;20041;-76
2023/05/24 12:09:32;;;;;;;10.82;4.80;;;;;;;26.77;42.33;100423.03;5021030;28;20041;-75
2023/05/24 12:12:26;;;;;;;11.45;5.18;;;;;;;26.54;42.78;100423.16;5025462;28;20053;-75
2023/05/24 12:15:21;;;;;;;10.20;4.78;;;;;;;26.46;42.57;100416.94;5016294;28;20030;-76
2023/05/24 12:18:25;;;;;;;11.65;5.10;;;;;;;26.15;44.15;100407.22;5014525;28;20041;-76
2023/05/24 12:21:19;;;;;;;8.45;5.30;;;;;;;26.26;43.58;100416.19;5008582;28;20030;-74
2023/05/24 12:24:15;;;;;;;9.60;5.40;;;;;;;26.29;44.05;100426.47;5009968;28;20052;-74
2023/05/24 12:27:10;;;;;;;10.40;4.40;;;;;;;26.61;43.90;100415.44;4998245;28;20046;-75
2023/05/24 12:30:07;;;;;;;6.97;4.55;;;;;;;26.69;43.74;100428.00;5023154;28;20048;-75
2023/05/24 12:33:03;;;;;;;7.93;4.75;;;;;;;26.76;43.77;100416.69;5025553;28;20045;-75
2023/05/24 12:35:56;;;;;;;;;;;;;;;26.61;43.97;100420.22;5015048;28;20041;-74
2023/05/24 12:38:51;;;;;;;6.25;4.53;;;;;;;26.16;44.61;100423.47;5015166;28;19914;-75
2023/05/24 12:41:45;;;;;;;6.57;3.92;;;;;;;25.84;45.31;100420.53;5012531;28;20542;-75
2023/05/24 12:44:40;;;;;;;9.27;3.83;;;;;;;25.87;44.31;100419.69;5008692;28;20045;-75
2023/05/24 12:47:34;;;;;;;7.07;4.25;;;;;;;26.30;43.83;100419.69;5011844;28;20053;-74
2023/05/24 12:50:30;;;;;;;6.00;3.45;;;;;;;26.16;44.56;100414.38;5016262;28;20052;-75
2023/05/24 12:53:24;;;;;;;13.52;3.90;;;;;;;26.28;42.49;100420.09;5009833;28;20049;-75
2023/05/24 12:56:19;;;;;;;6.57;3.92;;;;;;;26.27;43.72;100398.22;5004792;28;20049;-75
2023/05/24 12:59:14;;;;;;;4.47;3.30;;;;;;;26.47;42.97;100403.75;5006154;28;20049;-75
2023/05/24 13:02:08;;;;;;;426.25;28.25;;;;;;;26.73;42.34;100397.22;5001883;28;20037;-75
2023/05/24 13:05:04;;;;;;;9.10;3.38;;;;;;;26.78;41.52;100397.50;4999562;28;20038;-75
2023/05/24 13:07:59;;;;;;;6.88;3.30;;;;;;;26.79;42.17;100393.50;5003765;28;20061;-75
2023/05/24 13:10:52;;;;;;;7.60;3.55;;;;;;;26.67;42.11;100385.00;5009376;28;20354;-75
2023/05/24 13:13:47;;;;;;;8.95;3.85;;;;;;;26.87;42.66;100376.63;5006036;28;20041;-75
2023/05/24 13:16:41;;;;;;;9.20;3.30;;;;;;;26.45;42.03;100383.91;5012950;28;20041;-75
2023/05/24 13:19:36;;;;;;;411.95;89.05;;;;;;;26.18;44.34;100386.81;5016391;28;20057;-75
2023/05/24 13:22:31;;;;;;;16.60;5.78;;;;;;;26.45;42.77;100381.13;5012346;28;20042;-76
2023/05/24 13:25:26;;;;;;;7.93;3.60;;;;;;;26.62;42.32;100377.13;5008633;28;20053;-75
2023/05/24 13:28:18;;;;;;;9.73;3.42;;;;;;;26.71;42.82;100385.72;5013790;28;20052;-75